sensor_id;sensor_type;location;lat;lon;timestamp;pressure;altitude;pressure_sealevel;temperature
66602;BMP280;53459;51.828;7.872;2022-08-21T00:00:29;132698.59;;;16.08
66602;BMP280;53459;51.828;7.872;2022-08-21T00:03:00;133740.25;;;16.01
66602;BMP280;53459;51.828;7.872;2022-08-21T00:05:27;130901.78;;;15.92
66602;BMP280;53459;51.828;7.872;2022-08-21T00:07:53;132657.63;;;15.90
66602;BMP280;53459;51.828;7.872;2022-08-21T00:10:19;133726.16;;;15.95
66602;BMP280;53459;51.828;7.872;2022-08-21T00:12:46;138647.53;;;15.89
66602;BMP280;53459;51.828;7.872;2022-08-21T00:19:12;146761.75;;;15.84
66602;BMP280;53459;51.828;7.872;2022-08-21T00:21:38;140028.47;;;15.75
66602;BMP280;53459;51.828;7.872;2022-08-21T00:24:09;134016.38;;;15.67
66602;BMP280;53459;51.828;7.872;2022-08-21T00:33:47;138195.81;;;15.45
66602;BMP280;53459;51.828;7.872;2022-08-21T00:36:13;137508.75;;;15.53
66602;BMP280;53459;51.828;7.872;2022-08-21T00:39:32;68239.09;;;-138.45
66602;BMP280;53459;51.828;7.872;2022-08-21T01:00:37;162298.75;;;15.59
66602;BMP280;53459;51.828;7.872;2022-08-21T01:03:08;160107.19;;;15.50
66602;BMP280;53459;51.828;7.872;2022-08-21T01:05:35;156400.47;;;15.60
66602;BMP280;53459;51.828;7.872;2022-08-21T01:08:01;160130.38;;;15.69
66602;BMP280;53459;51.828;7.872;2022-08-21T01:18:49;161798.34;;;15.83
66602;BMP280;53459;51.828;7.872;2022-08-21T01:21:31;162387.38;;;15.92
66602;BMP280;53459;51.828;7.872;2022-08-21T01:24:06;162392.69;;;15.94
66602;BMP280;53459;51.828;7.872;2022-08-21T01:26:33;162393.97;;;15.95
66602;BMP280;53459;51.828;7.872;2022-08-21T01:32:13;162403.25;;;15.98
66602;BMP280;53459;51.828;7.872;2022-08-21T01:35:38;160417.88;;;16.01
66602;BMP280;53459;51.828;7.872;2022-08-21T01:38:04;161898.44;;;16.01
66602;BMP280;53459;51.828;7.872;2022-08-21T01:40:36;162423.13;;;16.05
66602;BMP280;53459;51.828;7.872;2022-08-21T01:43:02;161257.84;;;16.03
66602;BMP280;53459;51.828;7.872;2022-08-21T01:45:28;160974.63;;;16.11
66602;BMP280;53459;51.828;7.872;2022-08-21T01:58:19;161185.19;;;16.33
66602;BMP280;53459;51.828;7.872;2022-08-21T02:00:45;162497.25;;;16.33
66602;BMP280;53459;51.828;7.872;2022-08-21T02:03:11;159074.31;;;16.30
66602;BMP280;53459;51.828;7.872;2022-08-21T02:05:36;159780.63;;;16.41
66602;BMP280;53459;51.828;7.872;2022-08-21T02:08:42;162536.97;;;16.48
66602;BMP280;53459;51.828;7.872;2022-08-21T02:11:27;162563.44;;;16.58
66602;BMP280;53459;51.828;7.872;2022-08-21T02:16:55;68239.09;;;-138.45
66602;BMP280;53459;51.828;7.872;2022-08-21T02:19:28;162608.47;;;16.75
66602;BMP280;53459;51.828;7.872;2022-08-21T02:21:54;162608.47;;;16.75
66602;BMP280;53459;51.828;7.872;2022-08-21T02:25:13;68239.09;;;-138.45
66602;BMP280;53459;51.828;7.872;2022-08-21T02:27:57;162608.47;;;16.75
66602;BMP280;53459;51.828;7.872;2022-08-21T02:30:33;162608.47;;;16.75
66602;BMP280;53459;51.828;7.872;2022-08-21T02:32:59;162605.81;;;16.74
66602;BMP280;53459;51.828;7.872;2022-08-21T02:35:39;162605.81;;;16.74
66602;BMP280;53459;51.828;7.872;2022-08-21T02:38:13;162605.81;;;16.74
66602;BMP280;53459;51.828;7.872;2022-08-21T02:40:42;162523.75;;;16.43
66602;BMP280;53459;51.828;7.872;2022-08-21T02:43:11;162488.00;;;16.30
66602;BMP280;53459;51.828;7.872;2022-08-21T02:46:53;162482.72;;;16.28
66602;BMP280;53459;51.828;7.872;2022-08-21T02:49:30;161037.81;;;15.89
66602;BMP280;53459;51.828;7.872;2022-08-21T02:52:04;161037.81;;;15.89
66602;BMP280;53459;51.828;7.872;2022-08-21T03:00:48;68239.09;;;-138.45
66602;BMP280;53459;51.828;7.872;2022-08-21T03:08:32;68239.09;;;-138.45
66602;BMP280;53459;51.828;7.872;2022-08-21T03:16:07;119662.06;;;-138.45
66602;BMP280;53459;51.828;7.872;2022-08-21T03:18:33;139298.91;;;15.65
66602;BMP280;53459;51.828;7.872;2022-08-21T03:21:05;139980.63;;;15.54
66602;BMP280;53459;51.828;7.872;2022-08-21T03:27:22;137826.50;;;15.37
66602;BMP280;53459;51.828;7.872;2022-08-21T03:29:53;136037.09;;;15.25
66602;BMP280;53459;51.828;7.872;2022-08-21T03:33:11;68239.09;;;-138.45
66602;BMP280;53459;51.828;7.872;2022-08-21T03:47:19;149849.03;;;15.03
66602;BMP280;53459;51.828;7.872;2022-08-21T03:49:44;130655.09;;;14.76
66602;BMP280;53459;51.828;7.872;2022-08-21T03:52:10;125739.50;;;14.75
66602;BMP280;53459;51.828;7.872;2022-08-21T03:54:36;122235.84;;;14.76
66602;BMP280;53459;51.828;7.872;2022-08-21T03:57:02;122226.91;;;14.71
66602;BMP280;53459;51.828;7.872;2022-08-21T04:00:21;68239.09;;;-138.45
66602;BMP280;53459;51.828;7.872;2022-08-21T04:03:40;68239.09;;;-138.45
66602;BMP280;53459;51.828;7.872;2022-08-21T04:06:06;120126.25;;;14.71
66602;BMP280;53459;51.828;7.872;2022-08-21T04:08:32;120102.84;;;14.59
66602;BMP280;53459;51.828;7.872;2022-08-21T04:13:02;117992.59;;;14.53
66602;BMP280;53459;51.828;7.872;2022-08-21T04:15:38;116951.53;;;14.57
66602;BMP280;53459;51.828;7.872;2022-08-21T04:18:14;116955.31;;;14.59
66602;BMP280;53459;51.828;7.872;2022-08-21T04:20:40;115200.66;;;14.55
66602;BMP280;53459;51.828;7.872;2022-08-21T04:24:00;68239.09;;;-138.45
66602;BMP280;53459;51.828;7.872;2022-08-21T04:27:18;68239.09;;;-138.45
66602;BMP280;53459;51.828;7.872;2022-08-21T04:29:44;126761.81;;;14.61
66602;BMP280;53459;51.828;7.872;2022-08-21T04:33:03;68239.09;;;-138.45
66602;BMP280;53459;51.828;7.872;2022-08-21T04:36:22;68239.09;;;-138.45
66602;BMP280;53459;51.828;7.872;2022-08-21T04:38:48;120445.91;;;14.56
66602;BMP280;53459;51.828;7.872;2022-08-21T04:42:07;68239.09;;;-138.45
66602;BMP280;53459;51.828;7.872;2022-08-21T04:44:35;120445.91;;;14.56
66602;BMP280;53459;51.828;7.872;2022-08-21T04:47:01;118350.91;;;14.58
66602;BMP280;53459;51.828;7.872;2022-08-21T04:49:26;117298.19;;;14.56
66602;BMP280;53459;51.828;7.872;2022-08-21T04:51:52;116947.72;;;14.55
66602;BMP280;53459;51.828;7.872;2022-08-21T04:54:20;115901.25;;;14.56
66602;BMP280;53459;51.828;7.872;2022-08-21T04:56:49;116258.22;;;14.60
66602;BMP280;53459;51.828;7.872;2022-08-21T05:00:19;68239.09;;;-138.45
66602;BMP280;53459;51.828;7.872;2022-08-21T05:03:05;116258.22;;;14.60
66602;BMP280;53459;51.828;7.872;2022-08-21T05:15:16;119787.03;;;14.77
66602;BMP280;53459;51.828;7.872;2022-08-21T05:17:42;113500.72;;;14.80
66602;BMP280;53459;51.828;7.872;2022-08-21T05:21:02;68239.09;;;-138.45
66602;BMP280;53459;51.828;7.872;2022-08-21T05:23:28;116012.41;;;15.15
66602;BMP280;53459;51.828;7.872;2022-08-21T05:29:22;112872.91;;;15.19
66602;BMP280;53459;51.828;7.872;2022-08-21T05:32:43;68239.09;;;-138.45
66602;BMP280;53459;51.828;7.872;2022-08-21T05:36:20;68239.09;;;-138.45
66602;BMP280;53459;51.828;7.872;2022-08-21T05:51:45;124186.38;;;15.74
66602;BMP280;53459;51.828;7.872;2022-08-21T05:54:13;124186.38;;;15.74
66602;BMP280;53459;51.828;7.872;2022-08-21T05:57:42;68239.09;;;-138.45
66602;BMP280;53459;51.828;7.872;2022-08-21T06:08:28;68239.09;;;-138.45
66602;BMP280;53459;51.828;7.872;2022-08-21T06:11:48;68239.09;;;-138.45
66602;BMP280;53459;51.828;7.872;2022-08-21T06:15:12;68239.09;;;-138.45
66602;BMP280;53459;51.828;7.872;2022-08-21T06:18:30;68239.09;;;-138.45
66602;BMP280;53459;51.828;7.872;2022-08-21T06:21:48;68239.09;;;-138.45
66602;BMP280;53459;51.828;7.872;2022-08-21T06:25:10;68239.09;;;-138.45
66602;BMP280;53459;51.828;7.872;2022-08-21T06:36:45;147148.94;;;17.45
66602;BMP280;53459;51.828;7.872;2022-08-21T06:39:33;147148.94;;;17.45
66602;BMP280;53459;51.828;7.872;2022-08-21T06:41:59;151715.84;;;17.73
66602;BMP280;53459;51.828;7.872;2022-08-21T06:44:25;158248.03;;;17.86
66602;BMP280;53459;51.828;7.872;2022-08-21T06:47:15;159456.44;;;18.07
66602;BMP280;53459;51.828;7.872;2022-08-21T06:49:41;157604.78;;;18.13
66602;BMP280;53459;51.828;7.872;2022-08-21T06:59:09;163107.97;;;18.62
66602;BMP280;53459;51.828;7.872;2022-08-21T07:01:36;163145.09;;;18.76
66602;BMP280;53459;51.828;7.872;2022-08-21T07:04:01;68239.09;;;-138.45
66602;BMP280;53459;51.828;7.872;2022-08-21T07:06:27;163174.25;;;18.87
66602;BMP280;53459;51.828;7.872;2022-08-21T07:11:21;163215.34;;;19.02
66602;BMP280;53459;51.828;7.872;2022-08-21T07:13:47;163224.63;;;19.06
66602;BMP280;53459;51.828;7.872;2022-08-21T07:17:06;68239.09;;;-138.45
66602;BMP280;53459;51.828;7.872;2022-08-21T07:19:31;163280.38;;;19.27
66602;BMP280;53459;51.828;7.872;2022-08-21T07:22:00;163285.72;;;19.29
66602;BMP280;53459;51.828;7.872;2022-08-21T07:24:27;163324.16;;;19.43
66602;BMP280;53459;51.828;7.872;2022-08-21T07:26:52;163332.13;;;19.46
66602;BMP280;53459;51.828;7.872;2022-08-21T07:29:18;163318.84;;;19.41
66602;BMP280;53459;51.828;7.872;2022-08-21T07:31:44;163289.66;;;19.30
66602;BMP280;53459;51.828;7.872;2022-08-21T07:34:10;163318.84;;;19.41
66602;BMP280;53459;51.828;7.872;2022-08-21T07:36:36;163385.19;;;19.66
66602;BMP280;53459;51.828;7.872;2022-08-21T07:39:01;163458.19;;;19.93
66602;BMP280;53459;51.828;7.872;2022-08-21T07:41:28;163468.78;;;19.97
66602;BMP280;53459;51.828;7.872;2022-08-21T07:43:58;163486.06;;;20.04
66602;BMP280;53459;51.828;7.872;2022-08-21T07:46:24;163517.88;;;20.16
66602;BMP280;53459;51.828;7.872;2022-08-21T07:49:43;68239.09;;;-138.45
66602;BMP280;53459;51.828;7.872;2022-08-21T07:53:02;68239.09;;;-138.45
66602;BMP280;53459;51.828;7.872;2022-08-21T08:13:09;163727.63;;;20.94
66602;BMP280;53459;51.828;7.872;2022-08-21T08:15:36;163783.34;;;21.15
66602;BMP280;53459;51.828;7.872;2022-08-21T08:18:01;163832.47;;;21.33
66602;BMP280;53459;51.828;7.872;2022-08-21T08:20:27;163865.69;;;21.46
66602;BMP280;53459;51.828;7.872;2022-08-21T08:22:54;163932.13;;;21.71
66602;BMP280;53459;51.828;7.872;2022-08-21T08:25:22;163936.13;;;21.72
66602;BMP280;53459;51.828;7.872;2022-08-21T08:27:48;163969.34;;;21.85
66602;BMP280;53459;51.828;7.872;2022-08-21T08:30:15;163966.69;;;21.84
66602;BMP280;53459;51.828;7.872;2022-08-21T08:32:41;164011.81;;;22.00
66602;BMP280;53459;51.828;7.872;2022-08-21T08:35:07;164050.31;;;22.15
66602;BMP280;53459;51.828;7.872;2022-08-21T08:37:34;164059.63;;;22.18
66602;BMP280;53459;51.828;7.872;2022-08-21T08:40:04;164103.50;;;22.35
66602;BMP280;53459;51.828;7.872;2022-08-21T08:42:36;68239.09;;;-138.45
66602;BMP280;53459;51.828;7.872;2022-08-21T08:45:13;163950.75;;;21.78
66602;BMP280;53459;51.828;7.872;2022-08-21T08:47:44;164062.28;;;22.19
66602;BMP280;53459;51.828;7.872;2022-08-21T08:50:22;164118.16;;;22.40
66602;BMP280;53459;51.828;7.872;2022-08-21T08:52:54;164180.59;;;22.64
66602;BMP280;53459;51.828;7.872;2022-08-21T08:55:34;164274.94;;;22.99
66602;BMP280;53459;51.828;7.872;2022-08-21T08:59:56;164293.63;;;23.06
66602;BMP280;53459;51.828;7.872;2022-08-21T09:02:22;164270.97;;;22.97
66602;BMP280;53459;51.828;7.872;2022-08-21T09:04:53;164290.94;;;23.05
66602;BMP280;53459;51.828;7.872;2022-08-21T09:10:13;164290.94;;;23.05
66602;BMP280;53459;51.828;7.872;2022-08-21T09:23:22;164399.97;;;23.45
66602;BMP280;53459;51.828;7.872;2022-08-21T09:29:27;164548.91;;;24.01
66602;BMP280;53459;51.828;7.872;2022-08-21T09:31:55;164672.63;;;24.47
66602;BMP280;53459;51.828;7.872;2022-08-21T09:35:09;164937.44;;;25.46
66602;BMP280;53459;51.828;7.872;2022-08-21T09:38:54;165064.00;;;25.93
66602;BMP280;53459;51.828;7.872;2022-08-21T09:41:31;165627.56;;;28.03
66602;BMP280;53459;51.828;7.872;2022-08-21T09:43:57;68239.09;;;-138.45
66602;BMP280;53459;51.828;7.872;2022-08-21T09:46:25;165382.38;;;27.12
66602;BMP280;53459;51.828;7.872;2022-08-21T09:48:53;165306.41;;;26.84
66602;BMP280;53459;51.828;7.872;2022-08-21T09:51:27;165599.63;;;27.93
66602;BMP280;53459;51.828;7.872;2022-08-21T09:56:31;152232.13;;;29.49
66602;BMP280;53459;51.828;7.872;2022-08-21T09:59:32;131603.81;;;30.91
66602;BMP280;53459;51.828;7.872;2022-08-21T10:04:50;138351.34;;;30.42
66602;BMP280;53459;51.828;7.872;2022-08-21T10:07:21;137643.94;;;30.49
66602;BMP280;53459;51.828;7.872;2022-08-21T10:10:02;165544.94;;;27.73
66602;BMP280;53459;51.828;7.872;2022-08-21T10:13:39;160480.13;;;29.02
66602;BMP280;53459;51.828;7.872;2022-08-21T10:21:46;158723.97;;;29.15
66602;BMP280;53459;51.828;7.872;2022-08-21T10:30:04;68239.09;;;-138.45
66602;BMP280;53459;51.828;7.872;2022-08-21T10:55:02;129826.41;;;31.02
66602;BMP280;53459;51.828;7.872;2022-08-21T10:57:54;124147.78;;;31.42
66602;BMP280;53459;51.828;7.872;2022-08-21T11:00:23;120249.84;;;31.71
66602;BMP280;53459;51.828;7.872;2022-08-21T11:03:11;126276.84;;;31.27
66602;BMP280;53459;51.828;7.872;2022-08-21T11:05:47;129115.31;;;31.06
66602;BMP280;53459;51.828;7.872;2022-08-21T11:08:42;116711.66;;;32.00
66602;BMP280;53459;51.828;7.872;2022-08-21T11:11:22;107515.06;;;32.73
66602;BMP280;53459;51.828;7.872;2022-08-21T11:13:57;102920.44;;;33.11
66602;BMP280;53459;51.828;7.872;2022-08-21T11:27:14;98682.31;;;33.46
66602;BMP280;53459;51.828;7.872;2022-08-21T11:41:22;89161.63;;;34.32
66602;BMP280;53459;51.828;7.872;2022-08-21T11:58:52;90216.50;;;34.20
66602;BMP280;53459;51.828;7.872;2022-08-21T12:01:26;95150.88;;;33.75
66602;BMP280;53459;51.828;7.872;2022-08-21T12:04:06;74035.72;;;35.89
66602;BMP280;53459;51.828;7.872;2022-08-21T12:06:36;71576.44;;;36.17
66602;BMP280;53459;51.828;7.872;2022-08-21T12:09:11;57879.72;;;37.78
66602;BMP280;53459;51.828;7.872;2022-08-21T12:16:39;74738.41;;;35.81
66602;BMP280;53459;51.828;7.872;2022-08-21T12:22:07;84933.50;;;34.71
66602;BMP280;53459;51.828;7.872;2022-08-21T12:27:46;82110.94;;;34.94
66602;BMP280;53459;51.828;7.872;2022-08-21T12:30:35;87398.44;;;34.47
66602;BMP280;53459;51.828;7.872;2022-08-21T12:33:57;68239.09;;;-138.45
66602;BMP280;53459;51.828;7.872;2022-08-21T12:37:20;68239.09;;;-138.45
66602;BMP280;53459;51.828;7.872;2022-08-21T12:40:43;68239.09;;;-138.45
66602;BMP280;53459;51.828;7.872;2022-08-21T12:44:12;68239.09;;;-138.45
66602;BMP280;53459;51.828;7.872;2022-08-21T12:47:49;68239.09;;;-138.45
66602;BMP280;53459;51.828;7.872;2022-08-21T12:51:30;68239.09;;;-138.45
66602;BMP280;53459;51.828;7.872;2022-08-21T12:54:50;68239.09;;;-138.45
66602;BMP280;53459;51.828;7.872;2022-08-21T12:58:22;68239.09;;;-138.45
66602;BMP280;53459;51.828;7.872;2022-08-21T13:03:28;68239.09;;;-138.45
66602;BMP280;53459;51.828;7.872;2022-08-21T13:06:47;68239.09;;;-138.45
66602;BMP280;53459;51.828;7.872;2022-08-21T13:10:19;68239.09;;;-138.45
66602;BMP280;53459;51.828;7.872;2022-08-21T13:13:39;68239.09;;;-138.45
66602;BMP280;53459;51.828;7.872;2022-08-21T13:16:59;68239.09;;;-138.45
66602;BMP280;53459;51.828;7.872;2022-08-21T13:20:20;68239.09;;;-138.45
66602;BMP280;53459;51.828;7.872;2022-08-21T13:23:38;68239.09;;;-138.45
66602;BMP280;53459;51.828;7.872;2022-08-21T13:26:16;87393.56;;;34.44
66602;BMP280;53459;51.828;7.872;2022-08-21T13:28:43;79293.63;;;35.20
66602;BMP280;53459;51.828;7.872;2022-08-21T13:33:33;80702.56;;;35.07
66602;BMP280;53459;51.828;7.872;2022-08-21T13:38:28;75432.63;;;35.66
66602;BMP280;53459;51.828;7.872;2022-08-21T13:44:20;70170.00;;;36.32
66602;BMP280;53459;51.828;7.872;2022-08-21T13:46:48;62440.34;;;37.19
66602;BMP280;53459;51.828;7.872;2022-08-21T13:49:19;72624.66;;;36.00
66602;BMP280;53459;51.828;7.872;2022-08-21T13:51:46;76133.41;;;35.57
66602;BMP280;53459;51.828;7.872;2022-08-21T13:55:51;69116.03;;;36.44
66602;BMP280;53459;51.828;7.872;2022-08-21T13:58:25;74382.31;;;35.81
66602;BMP280;53459;51.828;7.872;2022-08-21T14:03:00;74031.00;;;35.85
66602;BMP280;53459;51.828;7.872;2022-08-21T14:06:26;70874.31;;;36.25
66602;BMP280;53459;51.828;7.872;2022-08-21T14:10:49;72627.53;;;36.03
66602;BMP280;53459;51.828;7.872;2022-08-21T14:16:10;60683.28;;;37.38
66602;BMP280;53459;51.828;7.872;2022-08-21T14:18:49;71225.13;;;36.21
66602;BMP280;53459;51.828;7.872;2022-08-21T14:21:24;71924.31;;;36.10
66602;BMP280;53459;51.828;7.872;2022-08-21T14:26:55;81406.44;;;35.00
66602;BMP280;53459;51.828;7.872;2022-08-21T14:29:24;113869.72;;;32.16
66602;BMP280;53459;51.828;7.872;2022-08-21T14:32:09;113153.81;;;32.17
66602;BMP280;53459;51.828;7.872;2022-08-21T14:34:35;93378.84;;;33.85
66602;BMP280;53459;51.828;7.872;2022-08-21T14:37:00;72977.69;;;35.98
66602;BMP280;53459;51.828;7.872;2022-08-21T14:39:26;84221.44;;;34.72
66602;BMP280;53459;51.828;7.872;2022-08-21T14:41:52;74379.38;;;35.79
66602;BMP280;53459;51.828;7.872;2022-08-21T14:45:17;72979.44;;;35.99
66602;BMP280;53459;51.828;7.872;2022-08-21T14:47:44;78942.97;;;35.25
66602;BMP280;53459;51.828;7.872;2022-08-21T14:50:12;103615.22;;;32.98
66602;BMP280;53459;51.828;7.872;2022-08-21T14:52:38;121652.97;;;31.53
66602;BMP280;53459;51.828;7.872;2022-08-21T14:55:05;115986.00;;;31.96
66602;BMP280;53459;51.828;7.872;2022-08-21T14:57:33;115986.00;;;31.96
66602;BMP280;53459;51.828;7.872;2022-08-21T14:59:59;115629.75;;;31.97
66602;BMP280;53459;51.828;7.872;2022-08-21T15:02:25;119171.69;;;31.71
66602;BMP280;53459;51.828;7.872;2022-08-21T15:06:22;77887.91;;;35.36
66602;BMP280;53459;51.828;7.872;2022-08-21T15:09:40;68239.09;;;-138.45
66602;BMP280;53459;51.828;7.872;2022-08-21T15:12:58;68239.09;;;-138.45
66602;BMP280;53459;51.828;7.872;2022-08-21T15:16:16;68239.09;;;-138.45
66602;BMP280;53459;51.828;7.872;2022-08-21T15:19:35;68239.09;;;-138.45
66602;BMP280;53459;51.828;7.872;2022-08-21T15:22:53;68239.09;;;-138.45
66602;BMP280;53459;51.828;7.872;2022-08-21T15:26:11;68239.09;;;-138.45
66602;BMP280;53459;51.828;7.872;2022-08-21T15:29:30;68239.09;;;-138.45
66602;BMP280;53459;51.828;7.872;2022-08-21T15:32:49;68239.09;;;-138.45
66602;BMP280;53459;51.828;7.872;2022-08-21T15:36:47;68239.09;;;-138.45
66602;BMP280;53459;51.828;7.872;2022-08-21T15:40:06;68239.09;;;-138.45
66602;BMP280;53459;51.828;7.872;2022-08-21T15:42:32;92673.91;;;33.91
66602;BMP280;53459;51.828;7.872;2022-08-21T15:44:58;94441.25;;;33.78
66602;BMP280;53459;51.828;7.872;2022-08-21T15:47:29;90913.47;;;34.08
66602;BMP280;53459;51.828;7.872;2022-08-21T15:50:39;98318.31;;;33.42
66602;BMP280;53459;51.828;7.872;2022-08-21T15:53:05;91619.06;;;34.02
66602;BMP280;53459;51.828;7.872;2022-08-21T15:55:33;108205.25;;;32.58
66602;BMP280;53459;51.828;7.872;2022-08-21T15:58:00;105381.94;;;32.83
66602;BMP280;53459;51.828;7.872;2022-08-21T16:00:32;116341.38;;;31.94
66602;BMP280;53459;51.828;7.872;2022-08-21T16:02:59;124844.44;;;31.30
66602;BMP280;53459;51.828;7.872;2022-08-21T16:06:49;141884.34;;;30.08
66602;BMP280;53459;51.828;7.872;2022-08-21T16:09:15;157572.84;;;29.09
66602;BMP280;53459;51.828;7.872;2022-08-21T16:11:42;150429.50;;;29.52
66602;BMP280;53459;51.828;7.872;2022-08-21T16:14:08;145442.06;;;29.84
66602;BMP280;53459;51.828;7.872;2022-08-21T16:16:35;161202.75;;;28.86
66602;BMP280;53459;51.828;7.872;2022-08-21T16:19:02;164909.13;;;28.50
66602;BMP280;53459;51.828;7.872;2022-08-21T16:21:28;155199.72;;;29.20
66602;BMP280;53459;51.828;7.872;2022-08-21T16:23:54;149713.03;;;29.55
66602;BMP280;53459;51.828;7.872;2022-08-21T16:26:20;158409.84;;;29.04
66602;BMP280;53459;51.828;7.872;2022-08-21T16:28:50;162218.31;;;28.76
66602;BMP280;53459;51.828;7.872;2022-08-21T16:31:17;152563.59;;;29.37
66602;BMP280;53459;51.828;7.872;2022-08-21T16:33:50;157898.16;;;29.05
66602;BMP280;53459;51.828;7.872;2022-08-21T16:36:16;145087.63;;;29.87
66602;BMP280;53459;51.828;7.872;2022-08-21T16:38:42;146510.19;;;29.77
66602;BMP280;53459;51.828;7.872;2022-08-21T16:41:12;152564.84;;;29.38
66602;BMP280;53459;51.828;7.872;2022-08-21T16:43:45;156249.00;;;29.14
66602;BMP280;53459;51.828;7.872;2022-08-21T16:46:12;162404.31;;;28.75
66602;BMP280;53459;51.828;7.872;2022-08-21T16:48:40;165699.59;;;28.30
66602;BMP280;53459;51.828;7.872;2022-08-21T16:51:06;165626.25;;;28.03
66602;BMP280;53459;51.828;7.872;2022-08-21T16:53:32;165511.66;;;27.60
66602;BMP280;53459;51.828;7.872;2022-08-21T16:55:58;165598.25;;;27.92
66602;BMP280;53459;51.828;7.872;2022-08-21T16:58:30;165518.31;;;27.63
66602;BMP280;53459;51.828;7.872;2022-08-21T17:01:27;165472.94;;;27.46
66602;BMP280;53459;51.828;7.872;2022-08-21T17:03:54;165335.69;;;26.95
66602;BMP280;53459;51.828;7.872;2022-08-21T17:06:21;165483.63;;;27.50
66602;BMP280;53459;51.828;7.872;2022-08-21T17:11:06;165310.38;;;26.85
66602;BMP280;53459;51.828;7.872;2022-08-21T17:13:33;165395.69;;;27.17
66602;BMP280;53459;51.828;7.872;2022-08-21T17:15:59;165279.72;;;26.74
66602;BMP280;53459;51.828;7.872;2022-08-21T17:18:25;165187.84;;;26.40
66602;BMP280;53459;51.828;7.872;2022-08-21T17:20:51;165211.84;;;26.48
66602;BMP280;53459;51.828;7.872;2022-08-21T17:23:17;165182.53;;;26.38
66602;BMP280;53459;51.828;7.872;2022-08-21T17:25:47;165174.50;;;26.35
66602;BMP280;53459;51.828;7.872;2022-08-21T17:28:16;165056.00;;;25.90
66602;BMP280;53459;51.828;7.872;2022-08-21T17:31:40;165061.34;;;25.92
66602;BMP280;53459;51.828;7.872;2022-08-21T17:34:06;165070.66;;;25.96
66602;BMP280;53459;51.828;7.872;2022-08-21T17:36:32;165030.69;;;25.81
66602;BMP280;53459;51.828;7.872;2022-08-21T17:38:58;164992.06;;;25.66
66602;BMP280;53459;51.828;7.872;2022-08-21T17:41:24;164993.38;;;25.67
66602;BMP280;53459;51.828;7.872;2022-08-21T17:43:51;164908.19;;;25.35
66602;BMP280;53459;51.828;7.872;2022-08-21T17:47:09;164799.00;;;24.94
66602;BMP280;53459;51.828;7.872;2022-08-21T17:50:56;164815.03;;;25.00
66602;BMP280;53459;51.828;7.872;2022-08-21T17:53:21;164793.72;;;24.92
66602;BMP280;53459;51.828;7.872;2022-08-21T17:55:48;164610.06;;;24.24
66602;BMP280;53459;51.828;7.872;2022-08-21T17:58:14;164575.47;;;24.11
66602;BMP280;53459;51.828;7.872;2022-08-21T18:00:40;164490.38;;;23.79
66602;BMP280;53459;51.828;7.872;2022-08-21T18:03:12;164407.91;;;23.48
66602;BMP280;53459;51.828;7.872;2022-08-21T18:05:44;164328.16;;;23.19
66602;BMP280;53459;51.828;7.872;2022-08-21T18:08:16;164294.91;;;23.06
66602;BMP280;53459;51.828;7.872;2022-08-21T18:10:45;164248.34;;;22.89
66602;BMP280;53459;51.828;7.872;2022-08-21T18:13:14;164257.66;;;22.92
66602;BMP280;53459;51.828;7.872;2022-08-21T18:15:45;164261.66;;;22.94
66602;BMP280;53459;51.828;7.872;2022-08-21T18:18:13;164273.59;;;22.98
66602;BMP280;53459;51.828;7.872;2022-08-21T18:20:39;164229.78;;;22.82
66602;BMP280;53459;51.828;7.872;2022-08-21T18:23:04;164184.56;;;22.65
66602;BMP280;53459;51.828;7.872;2022-08-21T18:25:30;164163.28;;;22.57
66602;BMP280;53459;51.828;7.872;2022-08-21T18:27:56;164126.13;;;22.43
66602;BMP280;53459;51.828;7.872;2022-08-21T18:30:22;164086.22;;;22.28
66602;BMP280;53459;51.828;7.872;2022-08-21T18:32:49;164058.31;;;22.18
66602;BMP280;53459;51.828;7.872;2022-08-21T18:35:16;164003.88;;;21.97
66602;BMP280;53459;51.828;7.872;2022-08-21T18:41:36;163945.41;;;21.76
66602;BMP280;53459;51.828;7.872;2022-08-21T18:44:02;163912.19;;;21.63
66602;BMP280;53459;51.828;7.872;2022-08-21T18:46:27;163889.63;;;21.55
66602;BMP280;53459;51.828;7.872;2022-08-21T18:48:54;163848.41;;;21.39
66602;BMP280;53459;51.828;7.872;2022-08-21T18:51:20;163817.88;;;21.28
66602;BMP280;53459;51.828;7.872;2022-08-21T18:53:46;163764.81;;;21.08
66602;BMP280;53459;51.828;7.872;2022-08-21T18:56:12;163754.16;;;21.04
66602;BMP280;53459;51.828;7.872;2022-08-21T18:58:38;163727.63;;;20.94
66602;BMP280;53459;51.828;7.872;2022-08-21T19:01:04;163621.38;;;20.54
66602;BMP280;53459;51.828;7.872;2022-08-21T19:03:33;163585.53;;;20.41
66602;BMP280;53459;51.828;7.872;2022-08-21T19:05:59;163573.63;;;20.37
66602;BMP280;53459;51.828;7.872;2022-08-21T19:08:24;163570.97;;;20.36
66602;BMP280;53459;51.828;7.872;2022-08-21T19:10:55;163551.03;;;20.28
66602;BMP280;53459;51.828;7.872;2022-08-21T19:13:22;163543.09;;;20.25
66602;BMP280;53459;51.828;7.872;2022-08-21T19:15:50;163541.72;;;20.25
66602;BMP280;53459;51.828;7.872;2022-08-21T19:18:22;163531.13;;;20.21
66602;BMP280;53459;51.828;7.872;2022-08-21T19:20:49;163519.19;;;20.16
66602;BMP280;53459;51.828;7.872;2022-08-21T19:24:54;163495.34;;;20.07
66602;BMP280;53459;51.828;7.872;2022-08-21T19:27:20;163468.78;;;19.97
66602;BMP280;53459;51.828;7.872;2022-08-21T19:29:46;163462.16;;;19.95
66602;BMP280;53459;51.828;7.872;2022-08-21T19:32:11;163471.44;;;19.98
66602;BMP280;53459;51.828;7.872;2022-08-21T19:34:38;163459.47;;;19.94
66602;BMP280;53459;51.828;7.872;2022-08-21T19:40:33;163442.22;;;19.87
66602;BMP280;53459;51.828;7.872;2022-08-21T19:42:59;163430.25;;;19.83
66602;BMP280;53459;51.828;7.872;2022-08-21T19:45:24;163427.59;;;19.82
66602;BMP280;53459;51.828;7.872;2022-08-21T19:47:50;163432.94;;;19.84
66602;BMP280;53459;51.828;7.872;2022-08-21T19:50:16;163398.44;;;19.71
66602;BMP280;53459;51.828;7.872;2022-08-21T19:52:42;163381.16;;;19.65
66602;BMP280;53459;51.828;7.872;2022-08-21T19:55:08;163369.22;;;19.60
66602;BMP280;53459;51.828;7.872;2022-08-21T19:57:36;163363.94;;;19.58
66602;BMP280;53459;51.828;7.872;2022-08-21T20:00:05;163349.34;;;19.53
66602;BMP280;53459;51.828;7.872;2022-08-21T20:02:35;163338.75;;;19.49